Huvudsida
METAR-TAF:

METAR-TAF

Flygplatser :

Kirkwall Airport

Kirkwall, Skottland

latitud: 58-57N, longitud: 002-54W, höjd: 21 m

Aktuellt väderrapport

Denna rapport gjordes för 37 minuter sedan, klockan 00:20 UTC
Vind 10 kt från syd/sydost
Temperatur 8°C
Fuktighet 93%
Tryck 1007 hPa
Sikt 10 km eller mer

METAR: EGPA 230020Z AUTO 15010KT 9999 NCD 08/07 Q1007

Tid: 01:57 (00:57 UTC)

Väderprognos

Denna rapport gjordes för 1 timme och 59 minuter sedan, klockan 22:58 UTC
Prognos gäller från 23 kl. 00 UTC till 23 kl. 09 UTC
Vind 15 kt från syd/sydost
Sikt 10 km eller mer
Inga moln under 1 500 m eller inga cumulonimbus
Temporärt
från 23 kl. 06 UTC till 23 kl. 09 UTC
Vind 20 kt från sydost i byarna ända upp till 30 kt

TAF: EGPA 222258Z 2300/2309 16015KT CAVOK TEMPO 2306/2309 14020G30KT

Aktuella väderrapporter och prognoser från 4000 flygplatser (METAR- och TAF-rapporter).

De tillgängliga stationerna syns som gula och röda prickar på kartan.

För musen över prickarna för att se namnen på stationerna.

Klicka sedan för att få väderrapporter och prognoser.

För att ändra kartan: Klicka på de gröna knapparna med ett svart kors på för att zooma in; den gröna knappen med ett streck på för att zooma ut; eller på de gröna pilarna för angränsande kartor.


METAR-TAF: